Time;durP1;ratioP1;P1;durP2;ratioP2;P2;SDS_P1;SDS_P2;PMS_P1;PMS_P2;Temp;Humidity;BMP_temperature;BMP_pressure;BME280_temperature;BME280_humidity;BME280_pressure;Samples;Min_cycle;Max_cycle;Signal;HPM_P1;HPM_P2
2022/11/01 00:02:09;;;;;;;31.67;24.10;;;13.50;99.90;;;;;;5023333;28;20045;-78
2022/11/01 00:04:36;;;;;;;30.63;22.73;;;13.50;99.90;;;;;;5026412;28;20055;-78
2022/11/01 00:07:03;;;;;;;29.55;24.10;;;13.50;99.90;;;;;;5019235;28;20403;-78
2022/11/01 00:09:30;;;;;;;32.67;24.27;;;13.50;99.90;;;;;;5024989;28;20045;-78
2022/11/01 00:11:57;;;;;;;27.95;23.85;;;13.50;99.90;;;;;;5025076;28;20342;-78
2022/11/01 00:14:24;;;;;;;26.35;23.15;;;13.50;99.90;;;;;;5025028;28;20053;-76
2022/11/01 00:16:51;;;;;;;27.33;23.52;;;13.40;99.90;;;;;;5008654;28;20037;-78
2022/11/01 00:19:18;;;;;;;26.23;23.05;;;13.50;99.90;;;;;;5019724;28;20091;-78
2022/11/01 00:21:45;;;;;;;28.63;23.90;;;13.40;99.90;;;;;;5008924;28;20131;-78
2022/11/01 00:24:11;;;;;;;26.33;20.73;;;13.30;99.90;;;;;;5024870;28;20049;-77
2022/11/01 00:26:38;;;;;;;29.83;23.38;;;13.30;99.90;;;;;;5017051;28;20065;-77
2022/11/01 00:29:05;;;;;;;31.27;22.13;;;13.30;99.90;;;;;;5022493;28;20206;-78
2022/11/01 00:31:35;;;;;;;27.40;22.05;;;13.30;99.90;;;;;;5039071;28;20041;-78
2022/11/01 00:34:04;;;;;;;25.30;22.23;;;13.40;99.90;;;;;;5014662;28;20637;-78
2022/11/01 00:36:32;;;;;;;25.75;22.60;;;13.30;99.90;;;;;;5024033;28;20086;-78
2022/11/01 00:38:59;;;;;;;26.63;23.05;;;13.30;99.90;;;;;;5013218;28;20132;-77
2022/11/01 00:41:26;;;;;;;33.20;24.08;;;13.30;99.90;;;;;;5022515;28;20061;-77
2022/11/01 00:43:53;;;;;;;29.00;23.50;;;13.30;99.90;;;;;;5021266;28;20121;-78
2022/11/01 00:46:22;;;;;;;32.08;23.67;;;13.30;99.90;;;;;;5012853;28;20120;-77
2022/11/01 00:48:49;;;;;;;34.08;24.13;;;13.30;99.90;;;;;;5022227;28;20064;-77
2022/11/01 00:51:16;;;;;;;34.50;23.98;;;13.30;99.90;;;;;;5025262;28;20247;-77
2022/11/01 00:53:43;;;;;;;36.38;23.98;;;13.30;99.90;;;;;;5022733;28;20052;-78
2022/11/01 00:56:09;;;;;;;26.45;23.60;;;13.20;99.90;;;;;;5048016;28;20128;-77
2022/11/01 00:58:36;;;;;;;33.92;23.95;;;13.30;99.90;;;;;;5029612;23;20739;-75
2022/11/01 01:01:03;;;;;;;31.80;24.05;;;13.30;99.90;;;;;;5055804;28;20067;-76
2022/11/01 01:03:30;;;;;;;31.73;23.50;;;13.30;99.90;;;;;;5033618;28;20127;-75
2022/11/01 01:05:57;;;;;;;30.55;23.60;;;13.30;99.90;;;;;;5056385;28;20460;-75
2022/11/01 01:08:24;;;;;;;30.98;23.70;;;13.40;99.90;;;;;;5054046;28;20146;-76
2022/11/01 01:10:51;;;;;;;28.20;22.67;;;13.40;99.90;;;;;;5048165;28;20047;-76
2022/11/01 01:13:19;;;;;;;28.20;24.27;;;13.40;99.90;;;;;;5034967;28;20047;-75
2022/11/01 01:15:46;;;;;;;31.83;23.52;;;13.40;99.90;;;;;;5061537;28;20045;-75
2022/11/01 01:18:13;;;;;;;34.60;25.35;;;13.50;99.90;;;;;;5057087;28;20232;-75
2022/11/01 01:20:40;;;;;;;32.30;23.55;;;13.50;99.90;;;;;;5036094;28;20371;-75
2022/11/01 01:23:06;;;;;;;34.83;24.73;;;13.50;99.90;;;;;;5065259;22;20046;-70
2022/11/01 01:25:33;;;;;;;38.33;24.35;;;13.60;99.90;;;;;;5014075;28;20038;-71
2022/11/01 01:28:00;;;;;;;35.53;24.10;;;13.60;99.90;;;;;;5017613;28;20617;-71
2022/11/01 01:30:27;;;;;;;30.42;23.60;;;13.60;99.90;;;;;;5012136;28;20050;-72
2022/11/01 01:32:54;;;;;;;29.70;24.63;;;13.60;99.90;;;;;;5014608;28;20486;-72
2022/11/01 01:35:20;;;;;;;29.77;24.48;;;13.60;99.90;;;;;;4996211;28;20045;-72
2022/11/01 01:37:47;;;;;;;32.35;25.02;;;13.60;99.90;;;;;;5012287;28;20045;-71
2022/11/01 01:40:14;;;;;;;34.55;25.27;;;13.60;99.90;;;;;;5017270;28;20110;-70
2022/11/01 01:42:41;;;;;;;35.50;24.38;;;13.60;99.90;;;;;;4996198;28;20570;-72
2022/11/01 01:45:21;;;;;;;37.13;25.17;;;13.60;99.90;;;;;;4998638;28;20069;-71
2022/11/01 01:47:51;;;;;;;41.47;26.02;;;13.70;99.90;;;;;;4998431;28;20045;-71
2022/11/01 01:50:34;;;;;;;34.42;25.77;;;13.70;99.90;;;;;;4998320;28;20371;-71
2022/11/01 01:53:24;;;;;;;32.95;26.27;;;13.70;99.90;;;;;;5000528;28;20074;-71
2022/11/01 01:56:31;;;;;;;28.73;24.63;;;13.70;99.90;;;;;;5011462;28;20037;-72
2022/11/01 01:59:07;;;;;;;;;;;13.60;99.90;;;;;;4994290;28;20407;-72
2022/11/01 02:01:37;;;;;;;36.47;24.98;;;13.70;99.90;;;;;;5001561;28;19925;-72
2022/11/01 02:04:10;;;;;;;30.27;25.00;;;13.70;99.90;;;;;;5002623;28;20069;-71
2022/11/01 02:06:38;;;;;;;33.72;26.10;;;13.70;99.90;;;;;;5015166;28;20152;-71
2022/11/01 02:09:06;;;;;;;31.45;26.20;;;13.70;99.90;;;;;;5001558;28;20046;-71
2022/11/01 02:11:33;;;;;;;34.75;27.40;;;13.70;99.90;;;;;;5023812;28;20041;-70
2022/11/01 02:14:02;;;;;;;39.17;27.48;;;13.70;99.90;;;;;;5007322;28;20169;-73
2022/11/01 02:16:59;;;;;;;34.55;26.25;;;13.70;99.90;;;;;;5014063;28;20050;-71
2022/11/01 02:19:47;;;;;;;35.08;25.75;;;13.70;99.90;;;;;;5000042;28;20054;-73
2022/11/01 02:22:28;;;;;;;32.45;26.05;;;13.80;99.90;;;;;;5005488;28;20527;-70
2022/11/01 02:25:09;;;;;;;31.42;26.33;;;13.70;99.90;;;;;;5013215;28;20045;-70
2022/11/01 02:28:04;;;;;;;33.97;26.10;;;13.70;99.90;;;;;;5009553;28;20127;-72
2022/11/01 02:31:02;;;;;;;39.80;27.27;;;13.70;99.90;;;;;;5012793;28;20056;-72
2022/11/01 02:33:37;;;;;;;35.05;28.27;;;13.70;99.90;;;;;;4996931;28;20651;-72
2022/11/01 02:36:11;;;;;;;39.13;28.90;;;13.60;99.90;;;;;;5001483;28;20574;-72
2022/11/01 02:38:47;;;;;;;34.22;27.17;;;13.70;99.90;;;;;;4998608;28;20038;-73
2022/11/01 02:41:39;;;;;;;32.28;27.30;;;13.80;99.90;;;;;;5007838;28;20053;-70
2022/11/01 02:44:14;;;;;;;34.13;26.27;;;13.70;99.90;;;;;;5000347;28;20105;-73
2022/11/01 02:47:01;;;;;;;28.92;25.23;;;13.80;99.90;;;;;;5006354;28;20134;-72
2022/11/01 02:49:31;;;;;;;32.80;25.70;;;13.70;99.90;;;;;;5011915;28;20047;-72
2022/11/01 02:52:00;;;;;;;38.50;28.50;;;13.80;99.90;;;;;;5007852;28;20034;-73
2022/11/01 02:54:32;;;;;;;36.33;28.15;;;13.80;99.90;;;;;;5005655;28;20136;-71
2022/11/01 02:57:21;;;;;;;33.67;26.40;;;13.80;99.90;;;;;;5017962;28;20034;-70
2022/11/01 02:59:48;;;;;;;37.28;27.92;;;13.80;99.90;;;;;;5017003;28;20053;-71
2022/11/01 03:02:38;;;;;;;35.67;25.80;;;13.80;99.90;;;;;;5016990;28;20049;-69
2022/11/01 03:05:21;;;;;;;37.35;28.02;;;13.90;99.90;;;;;;5034804;28;20045;-69
2022/11/01 03:07:54;;;;;;;37.22;27.55;;;13.90;99.90;;;;;;5017855;28;20560;-71
2022/11/01 03:10:25;;;;;;;33.53;25.73;;;13.90;99.90;;;;;;5017214;28;20557;-71
2022/11/01 03:13:13;;;;;;;34.03;28.48;;;13.90;99.90;;;;;;5014849;28;20042;-71
2022/11/01 03:15:47;;;;;;;33.10;28.00;;;13.90;99.90;;;;;;5028855;28;20125;-71
2022/11/01 03:18:26;;;;;;;35.40;27.33;;;13.80;99.90;;;;;;5019452;28;20055;-71
2022/11/01 03:21:14;;;;;;;40.58;28.77;;;13.70;99.90;;;;;;5016115;28;20037;-71
2022/11/01 03:23:50;;;;;;;38.58;29.35;;;13.70;99.90;;;;;;5014227;28;20038;-72
2022/11/01 03:26:24;;;;;;;34.63;28.33;;;13.70;99.90;;;;;;5018369;28;20049;-72
2022/11/01 03:28:55;;;;;;;38.20;28.33;;;13.70;99.90;;;;;;5017976;28;20037;-72
2022/11/01 03:31:28;;;;;;;39.20;26.45;;;13.60;99.90;;;;;;5016707;28;20444;-71
2022/11/01 03:34:03;;;;;;;37.75;27.90;;;13.60;99.90;;;;;;5012228;28;20041;-71
2022/11/01 03:36:38;;;;;;;36.28;27.15;;;13.50;99.90;;;;;;5016360;28;20044;-70
2022/11/01 03:39:10;;;;;;;;;;;13.50;99.90;;;;;;5019748;28;20076;-71
2022/11/01 03:41:42;;;;;;;33.17;26.55;;;13.50;99.90;;;;;;5013533;28;19921;-71
2022/11/01 03:44:11;;;;;;;37.30;27.33;;;13.50;99.90;;;;;;5018270;28;20037;-72
2022/11/01 03:46:39;;;;;;;32.58;27.00;;;13.50;99.90;;;;;;5013473;28;20557;-71
2022/11/01 03:49:06;;;;;;;34.15;27.65;;;13.50;99.90;;;;;;5017919;28;20041;-69
2022/11/01 03:51:33;;;;;;;34.03;26.48;;;13.50;99.90;;;;;;5013017;28;20503;-72
2022/11/01 03:53:59;;;;;;;35.15;28.42;;;13.60;99.90;;;;;;5021677;28;20037;-71
2022/11/01 03:56:26;;;;;;;33.28;26.95;;;13.60;99.90;;;;;;5015171;28;20535;-72
2022/11/01 03:58:52;;;;;;;39.03;27.65;;;13.60;99.90;;;;;;5017453;28;20049;-71
2022/11/01 04:01:19;;;;;;;38.55;28.05;;;13.60;99.90;;;;;;5016844;28;20053;-71
2022/11/01 04:03:46;;;;;;;36.75;27.35;;;13.60;99.90;;;;;;5014369;28;20099;-71
2022/11/01 04:06:13;;;;;;;34.97;28.73;;;13.60;99.90;;;;;;5016821;28;20094;-71
2022/11/01 04:08:40;;;;;;;38.28;29.25;;;13.60;99.90;;;;;;5012770;28;20045;-71
2022/11/01 04:11:06;;;;;;;36.53;29.58;;;13.60;99.90;;;;;;5013581;28;20034;-71
2022/11/01 04:13:33;;;;;;;35.58;29.63;;;13.60;99.90;;;;;;5008632;28;20046;-70
2022/11/01 04:21:31;;;;;;;47.03;31.08;;;13.60;99.90;;;;;;5010143;28;20049;-70
2022/11/01 04:23:57;;;;;;;43.00;30.08;;;13.60;99.90;;;;;;5008791;28;20044;-71
2022/11/01 04:26:24;;;;;;;40.38;31.85;;;13.60;99.90;;;;;;5012192;28;20129;-70
2022/11/01 04:28:57;;;;;;;41.15;31.67;;;13.60;99.90;;;;;;5009317;28;20048;-70
2022/11/01 04:31:36;;;;;;;41.03;30.38;;;13.60;99.90;;;;;;5011513;28;20092;-72
2022/11/01 04:34:04;;;;;;;41.28;29.67;;;13.60;99.90;;;;;;5011344;28;20044;-73
2022/11/01 04:36:30;;;;;;;37.75;29.27;;;13.60;99.90;;;;;;5014587;28;20129;-73
2022/11/01 04:38:57;;;;;;;36.85;29.77;;;13.60;99.90;;;;;;5007553;28;20141;-70
2022/11/01 04:41:27;;;;;;;34.40;29.02;;;13.60;99.90;;;;;;5010106;28;20041;-70
2022/11/01 04:43:56;;;;;;;43.17;31.50;;;13.60;99.90;;;;;;5014298;28;20048;-71
2022/11/01 04:46:23;;;;;;;38.65;29.48;;;13.60;99.90;;;;;;5013926;28;20048;-70
2022/11/01 04:48:50;;;;;;;34.05;28.17;;;13.60;99.90;;;;;;5012617;28;20065;-71
2022/11/01 04:51:16;;;;;;;33.70;28.80;;;13.60;99.90;;;;;;5014928;28;20408;-72
2022/11/01 04:53:43;;;;;;;36.97;28.90;;;13.60;99.90;;;;;;5010243;28;20464;-70
2022/11/01 04:56:12;;;;;;;40.78;28.33;;;13.70;99.90;;;;;;5008912;28;20045;-72
2022/11/01 04:58:39;;;;;;;32.20;26.67;;;13.70;99.90;;;;;;5011271;28;20121;-71
2022/11/01 05:01:12;;;;;;;35.60;28.20;;;13.70;99.90;;;;;;5015021;28;20146;-71
2022/11/01 05:03:39;;;;;;;34.78;27.65;;;13.70;99.90;;;;;;5008535;28;21372;-70
2022/11/01 05:06:06;;;;;;;29.52;26.30;;;13.70;99.90;;;;;;5015030;28;20041;-70
2022/11/01 05:08:33;;;;;;;31.25;26.15;;;13.80;99.90;;;;;;5013095;28;20061;-73
2022/11/01 05:11:00;;;;;;;35.35;27.08;;;13.70;99.90;;;;;;5014130;28;20052;-71
2022/11/01 05:13:27;;;;;;;31.73;26.88;;;13.70;99.90;;;;;;5011990;28;20037;-71
2022/11/01 05:15:53;;;;;;;29.67;26.17;;;13.70;99.90;;;;;;5013777;28;20997;-71
2022/11/01 05:18:41;;;;;;;30.35;25.65;;;13.70;99.90;;;;;;5010149;28;20045;-72
2022/11/01 05:21:08;;;;;;;32.95;25.42;;;13.80;99.90;;;;;;5014391;28;20483;-72
2022/11/01 05:23:34;;;;;;;32.15;25.63;;;13.80;99.90;;;;;;5009436;28;20263;-71
2022/11/01 05:26:01;;;;;;;26.70;24.10;;;13.80;99.90;;;;;;5014074;28;20149;-70
2022/11/01 05:28:28;;;;;;;30.50;24.13;;;13.80;99.90;;;;;;5027137;28;20044;-71
2022/11/01 05:30:56;;;;;;;30.15;23.83;;;13.80;99.90;;;;;;5013665;28;21259;-72
2022/11/01 05:33:23;;;;;;;26.58;23.85;;;13.90;99.90;;;;;;5017797;28;20415;-72
2022/11/01 05:35:50;;;;;;;27.15;23.98;;;13.90;99.90;;;;;;5010631;28;20057;-70
2022/11/01 05:38:17;;;;;;;27.23;24.50;;;13.90;99.90;;;;;;5016954;28;20076;-72
2022/11/01 05:40:43;;;;;;;27.88;25.02;;;13.90;99.90;;;;;;5028006;28;20847;-72
2022/11/01 05:43:10;;;;;;;27.85;25.00;;;13.90;99.90;;;;;;5015673;28;20749;-70
2022/11/01 05:45:37;;;;;;;27.15;23.60;;;14.00;99.90;;;;;;5011736;28;20057;-71
2022/11/01 05:48:04;;;;;;;26.70;23.88;;;14.00;99.90;;;;;;5014780;28;20049;-72
2022/11/01 05:50:31;;;;;;;25.85;23.33;;;13.90;99.90;;;;;;5009970;28;20052;-72
2022/11/01 05:53:07;;;;;;;27.55;25.05;;;14.00;99.90;;;;;;5018349;28;20044;-71
2022/11/01 05:55:34;;;;;;;30.25;25.63;;;14.00;99.90;;;;;;5009705;28;20038;-73
2022/11/01 05:58:01;;;;;;;27.27;24.65;;;14.00;99.90;;;;;;5013923;28;20032;-72
2022/11/01 06:00:28;;;;;;;27.45;24.60;;;14.00;99.90;;;;;;5008086;28;20050;-73
2022/11/01 06:02:57;;;;;;;26.23;23.48;;;14.00;99.90;;;;;;5014097;28;20137;-72
2022/11/01 06:05:25;;;;;;;29.10;24.27;;;13.90;99.90;;;;;;5005687;28;20050;-69
2022/11/01 06:07:51;;;;;;;28.05;25.13;;;13.90;99.90;;;;;;5010791;28;20049;-72
2022/11/01 06:10:18;;;;;;;27.05;24.23;;;13.90;99.90;;;;;;5012254;28;20122;-72
2022/11/01 06:12:45;;;;;;;25.52;22.90;;;13.90;99.90;;;;;;5000095;28;20085;-71
2022/11/01 06:15:11;;;;;;;34.20;25.13;;;13.90;99.90;;;;;;5012646;28;20048;-72
2022/11/01 06:17:38;;;;;;;28.63;24.52;;;13.90;99.90;;;;;;5009504;28;20045;-71
2022/11/01 06:20:05;;;;;;;28.17;25.20;;;13.90;99.90;;;;;;5012682;28;20046;-71
2022/11/01 06:22:37;;;;;;;27.33;24.42;;;13.90;99.90;;;;;;5008426;28;20049;-72
2022/11/01 06:25:04;;;;;;;27.42;24.63;;;13.80;99.90;;;;;;5001289;28;20402;-73
2022/11/01 06:27:31;;;;;;;30.23;24.83;;;13.80;99.90;;;;;;5008099;28;20041;-71
2022/11/01 06:29:58;;;;;;;25.13;22.45;;;13.80;99.90;;;;;;5013368;28;20383;-71
2022/11/01 06:32:26;;;;;;;29.65;24.25;;;13.80;99.90;;;;;;5009205;28;20624;-70
2022/11/01 06:34:52;;;;;;;27.00;23.92;;;13.70;99.90;;;;;;5008063;28;20046;-70
2022/11/01 06:37:19;;;;;;;31.17;24.88;;;13.70;99.90;;;;;;5008706;28;20057;-69
2022/11/01 06:39:46;;;;;;;28.17;25.27;;;13.70;99.90;;;;;;5006711;28;20116;-71
2022/11/01 06:42:12;;;;;;;34.40;24.88;;;13.70;99.90;;;;;;5011248;28;20060;-71
2022/11/01 06:44:39;;;;;;;28.90;23.85;;;13.70;99.90;;;;;;5006948;28;20553;-70
2022/11/01 06:47:06;;;;;;;30.90;23.00;;;13.70;99.90;;;;;;5024334;28;20692;-72
2022/11/01 06:49:33;;;;;;;25.42;22.77;;;13.70;99.90;;;;;;5013504;28;20041;-72
2022/11/01 06:52:00;;;;;;;30.65;23.38;;;13.80;99.90;;;;;;5032830;28;21044;-71
2022/11/01 06:54:26;;;;;;;28.88;24.30;;;13.70;99.90;;;;;;5011708;28;20049;-71
2022/11/01 06:56:53;;;;;;;28.08;24.55;;;13.80;99.90;;;;;;5011544;28;20050;-72
2022/11/01 06:59:20;;;;;;;31.23;24.40;;;13.80;99.90;;;;;;5009520;28;20041;-71
2022/11/01 07:01:46;;;;;;;26.65;22.58;;;13.80;99.90;;;;;;5008763;28;20672;-71
2022/11/01 07:04:13;;;;;;;31.48;22.25;;;13.90;99.90;;;;;;5014354;28;20058;-71
2022/11/01 07:06:40;;;;;;;25.23;22.52;;;13.90;99.90;;;;;;5012497;28;20496;-71
2022/11/01 07:09:06;;;;;;;27.77;23.80;;;13.90;99.90;;;;;;5018384;28;20045;-73
2022/11/01 07:11:33;;;;;;;28.27;23.83;;;13.90;99.90;;;;;;5009661;28;20041;-73
2022/11/01 07:14:00;;;;;;;30.08;24.70;;;13.90;99.90;;;;;;5009826;28;20045;-73
2022/11/01 07:16:27;;;;;;;28.05;23.15;;;13.90;99.90;;;;;;5026118;28;20037;-73
2022/11/01 07:18:55;;;;;;;28.83;25.13;;;13.90;99.90;;;;;;5011989;28;20038;-72
2022/11/01 07:21:22;;;;;;;29.58;25.15;;;13.90;99.90;;;;;;5018878;28;20053;-73
2022/11/01 07:23:49;;;;;;;33.95;25.77;;;13.90;99.90;;;;;;5036900;23;20061;-74
2022/11/01 07:26:16;;;;;;;29.88;26.58;;;14.00;99.90;;;;;;4985092;28;20126;-77
2022/11/01 07:28:43;;;;;;;28.27;25.15;;;14.00;99.90;;;;;;4981517;28;20495;-74
2022/11/01 07:31:10;;;;;;;26.75;23.98;;;14.10;99.90;;;;;;4969160;28;20201;-74
2022/11/01 07:33:36;;;;;;;27.08;24.30;;;14.00;99.90;;;;;;4981089;28;20042;-73
2022/11/01 07:36:04;;;;;;;27.20;24.40;;;14.10;99.90;;;;;;4964692;28;20079;-75
2022/11/01 07:38:31;;;;;;;29.88;25.73;;;14.20;99.90;;;;;;4972135;28;20050;-76
2022/11/01 07:40:58;;;;;;;29.33;25.83;;;14.10;99.90;;;;;;4980851;28;20116;-74
2022/11/01 07:43:24;;;;;;;29.20;25.77;;;14.10;99.90;;;;;;4976620;28;20030;-74
2022/11/01 07:45:52;;;;;;;31.75;26.20;;;14.10;99.90;;;;;;4981694;28;20133;-75
2022/11/01 07:48:19;;;;;;;28.83;25.48;;;14.10;99.90;;;;;;4999401;28;20380;-74
2022/11/01 07:50:46;;;;;;;30.95;27.67;;;14.10;99.90;;;;;;4961138;28;20119;-74
2022/11/01 07:53:16;;;;;;;29.38;25.95;;;14.20;99.90;;;;;;4987924;28;20135;-76
2022/11/01 07:55:44;;;;;;;29.92;25.75;;;14.10;99.90;;;;;;4975028;28;21253;-75
2022/11/01 07:58:12;;;;;;;28.73;25.85;;;14.10;99.90;;;;;;4986156;28;20502;-75
2022/11/01 08:00:40;;;;;;;25.15;22.60;;;14.20;99.90;;;;;;4975962;28;20112;-74
2022/11/01 08:03:15;;;;;;;27.17;23.73;;;14.20;99.90;;;;;;4983555;28;20042;-75
2022/11/01 08:05:42;;;;;;;;;;;14.30;99.90;;;;;;4980119;28;20136;-74
2022/11/01 08:08:09;;;;;;;22.42;20.30;;;14.40;99.90;;;;;;4986064;28;20424;-73
2022/11/01 08:10:37;;;;;;;21.33;19.40;;;14.50;99.90;;;;;;4995655;28;20085;-75
2022/11/01 08:13:07;;;;;;;20.30;18.48;;;14.70;99.90;;;;;;4981694;28;20517;-76
2022/11/01 08:15:35;;;;;;;21.15;19.60;;;14.90;99.90;;;;;;4975465;28;20418;-74
2022/11/01 08:18:01;;;;;;;20.77;19.13;;;15.10;99.90;;;;;;4980832;28;20511;-75
2022/11/01 08:20:29;;;;;;;20.77;19.58;;;15.30;99.90;;;;;;4961829;28;20147;-76
2022/11/01 08:22:56;;;;;;;21.52;20.20;;;15.60;99.90;;;;;;4980845;28;20038;-74
2022/11/01 08:25:23;;;;;;;22.13;20.38;;;15.70;99.90;;;;;;4997904;28;20069;-74
2022/11/01 08:27:51;;;;;;;23.45;21.50;;;15.70;99.90;;;;;;4949365;28;20034;-74
2022/11/01 08:30:18;;;;;;;21.17;19.88;;;15.80;99.90;;;;;;4962629;28;20136;-74
2022/11/01 08:32:45;;;;;;;20.92;19.73;;;15.80;99.90;;;;;;4974174;28;21640;-73
2022/11/01 08:35:12;;;;;;;21.73;20.42;;;15.90;99.90;;;;;;4965746;28;20054;-77
2022/11/01 08:37:52;;;;;;;22.75;21.13;;;15.90;99.90;;;;;;4982091;28;20245;-75
2022/11/01 08:40:20;;;;;;;21.40;20.20;;;15.90;99.90;;;;;;4985412;28;20806;-74
2022/11/01 08:42:47;;;;;;;23.38;21.70;;;15.90;99.90;;;;;;4977533;28;20117;-77
2022/11/01 08:45:17;;;;;;;22.63;21.05;;;15.90;99.90;;;;;;4983251;28;20046;-77
2022/11/01 08:47:44;;;;;;;22.05;20.80;;;16.00;99.90;;;;;;4977859;28;20081;-75
2022/11/01 08:50:15;;;;;;;21.13;19.73;;;15.90;99.90;;;;;;4968796;28;20065;-76
2022/11/01 08:52:42;;;;;;;23.15;21.67;;;15.90;99.90;;;;;;4972661;28;20426;-75
2022/11/01 08:55:10;;;;;;;22.48;21.02;;;15.90;99.90;;;;;;4979694;28;20101;-78
2022/11/01 08:57:37;;;;;;;21.95;20.55;;;16.00;99.90;;;;;;4974951;28;20080;-73
2022/11/01 09:00:09;;;;;;;22.60;21.30;;;15.90;99.90;;;;;;4979984;28;20503;-75
2022/11/01 09:02:36;;;;;;;22.40;20.83;;;15.90;99.90;;;;;;4975429;28;20288;-78
2022/11/01 09:05:04;;;;;;;22.42;20.67;;;15.90;99.90;;;;;;4967272;28;20235;-75
2022/11/01 09:07:32;;;;;;;24.00;22.50;;;15.80;99.90;;;;;;4961956;28;20057;-75
2022/11/01 09:09:59;;;;;;;23.15;21.55;;;15.80;99.90;;;;;;4993504;28;20116;-76
2022/11/01 09:12:26;;;;;;;23.88;22.35;;;15.70;99.90;;;;;;4961589;28;20054;-73
2022/11/01 09:14:52;;;;;;;23.42;21.77;;;15.70;99.90;;;;;;4992809;28;20123;-78
2022/11/01 09:17:19;;;;;;;22.33;20.85;;;15.70;99.90;;;;;;4984173;28;20657;-77
2022/11/01 09:19:46;;;;;;;21.33;20.13;;;15.70;99.90;;;;;;4965801;28;20977;-78
2022/11/01 09:22:13;;;;;;;22.67;21.27;;;15.90;99.90;;;;;;4983678;28;20248;-77
2022/11/01 09:24:39;;;;;;;22.30;20.92;;;16.00;99.90;;;;;;4968680;28;20365;-76
2022/11/01 09:27:08;;;;;;;22.10;20.67;;;16.00;99.90;;;;;;4967780;28;20436;-79
2022/11/01 09:29:35;;;;;;;21.60;20.15;;;16.00;99.90;;;;;;4977410;28;20093;-76
2022/11/01 09:32:02;;;;;;;22.58;21.17;;;16.10;99.90;;;;;;4981642;28;20153;-74
2022/11/01 09:34:29;;;;;;;21.88;20.58;;;16.20;99.90;;;;;;4973742;28;20073;-75
2022/11/01 09:36:55;;;;;;;23.58;22.05;;;16.30;99.90;;;;;;4997069;28;20107;-75
2022/11/01 09:39:22;;;;;;;24.10;22.33;;;16.30;99.90;;;;;;4982277;28;20590;-75
2022/11/01 09:42:03;;;;;;;22.98;21.52;;;15.90;99.90;;;;;;4960574;28;20085;-76
2022/11/01 09:44:34;;;;;;;22.00;20.52;;;15.50;99.90;;;;;;4970510;28;20050;-75
2022/11/01 09:47:12;;;;;;;23.83;22.48;;;15.10;99.90;;;;;;4981956;28;20042;-77
2022/11/01 09:49:42;;;;;;;21.80;20.23;;;14.90;99.90;;;;;;4977293;28;20615;-78
2022/11/01 09:52:18;;;;;;;20.45;19.15;;;14.80;99.90;;;;;;4964208;28;20054;-77
2022/11/01 09:54:46;;;;;;;20.95;19.73;;;15.00;99.90;;;;;;4997204;28;21275;-77
2022/11/01 09:57:38;;;;;;;20.85;19.25;;;15.20;99.90;;;;;;4981797;28;20049;-79
2022/11/01 10:00:13;;;;;;;19.25;18.08;;;15.30;99.90;;;;;;4960420;28;20104;-77
2022/11/01 10:02:53;;;;;;;20.10;18.88;;;15.50;99.90;;;;;;4983819;28;20058;-77
2022/11/01 10:05:43;;;;;;;20.10;19.00;;;15.60;99.90;;;;;;4965341;28;20799;-77
2022/11/01 10:08:40;;;;;;;19.95;18.65;;;15.80;99.90;;;;;;4984172;28;20129;-78
2022/11/01 10:11:35;;;;;;;19.67;18.38;;;15.90;99.90;;;;;;4962530;28;20073;-76
2022/11/01 10:14:33;;;;;;;19.25;17.88;;;15.90;99.90;;;;;;4963241;28;20631;-77
2022/11/01 10:17:08;;;;;;;20.23;18.90;;;16.10;99.90;;;;;;4987062;28;20481;-78
2022/11/01 10:19:37;;;;;;;20.83;19.05;;;16.10;99.90;;;;;;4960620;28;20133;-77
2022/11/01 10:22:11;;;;;;;19.45;18.15;;;16.20;99.90;;;;;;4990283;28;20406;-78
2022/11/01 10:24:41;;;;;;;19.10;17.67;;;16.40;99.90;;;;;;4969282;28;20136;-78
2022/11/01 10:27:51;;;;;;;20.38;18.98;;;16.50;99.90;;;;;;4970279;28;20936;-77
2022/11/01 10:30:19;;;;;;;18.80;17.70;;;16.70;99.90;;;;;;4987333;28;20053;-77
2022/11/01 10:32:51;;;;;;;19.80;18.60;;;16.70;99.90;;;;;;4981415;28;20153;-78
2022/11/01 10:35:24;;;;;;;19.67;18.40;;;16.90;99.90;;;;;;4976763;28;20333;-77
2022/11/01 10:38:15;;;;;;;19.85;18.52;;;17.00;99.90;;;;;;5002962;28;20046;-78
2022/11/01 10:41:28;;;;;;;19.27;18.08;;;17.00;99.90;;;;;;4982138;28;20682;-77
2022/11/01 10:43:59;;;;;;;18.52;17.50;;;17.00;99.90;;;;;;4976206;28;20119;-78
2022/11/01 10:46:32;;;;;;;18.98;17.92;;;16.60;99.90;;;;;;4975733;28;20479;-78
2022/11/01 10:49:03;;;;;;;18.98;17.85;;;16.70;99.90;;;;;;4982624;28;20152;-78
2022/11/01 10:51:33;;;;;;;19.48;18.20;;;16.70;99.90;;;;;;4966029;28;20526;-79
2022/11/01 10:54:09;;;;;;;18.98;17.73;;;16.80;99.90;;;;;;4977613;28;20137;-77
2022/11/01 10:56:42;;;;;;;19.30;17.88;;;17.00;99.90;;;;;;4979545;28;20068;-78
2022/11/01 10:59:31;;;;;;;19.75;18.48;;;17.00;99.90;;;;;;4973590;28;20057;-77
2022/11/01 11:02:00;;;;;;;18.63;17.73;;;17.00;99.90;;;;;;4984544;28;20053;-77
2022/11/01 11:04:28;;;;;;;19.95;18.38;;;16.90;99.90;;;;;;4992260;28;20074;-77
2022/11/01 11:06:55;;;;;;;19.77;18.23;;;16.80;99.90;;;;;;4956155;28;20042;-78
2022/11/01 11:09:31;;;;;;;19.92;18.63;;;16.80;99.90;;;;;;4979742;28;20081;-80
2022/11/01 11:12:02;;;;;;;19.85;18.65;;;16.80;99.90;;;;;;4983997;28;20034;-80
2022/11/01 11:14:32;;;;;;;19.85;18.65;;;16.90;99.90;;;;;;4993117;28;20766;-78
2022/11/01 11:17:01;;;;;;;19.77;18.48;;;17.00;99.90;;;;;;4978321;28;20484;-76
2022/11/01 11:19:28;;;;;;;20.67;19.45;;;16.90;99.90;;;;;;4962474;28;20037;-78
2022/11/01 11:21:56;;;;;;;20.15;18.90;;;17.20;99.90;;;;;;4995965;28;20049;-78
2022/11/01 11:24:34;;;;;;;21.52;20.23;;;17.10;99.90;;;;;;4976878;28;20201;-77
2022/11/01 11:27:09;;;;;;;21.40;20.00;;;17.20;99.90;;;;;;4983207;28;20462;-77
2022/11/01 11:30:01;;;;;;;21.05;19.77;;;17.20;99.90;;;;;;4978320;28;20046;-78
2022/11/01 11:32:32;;;;;;;21.40;19.85;;;17.10;99.90;;;;;;4970897;28;20120;-75
2022/11/01 11:35:07;;;;;;;22.58;21.00;;;17.20;99.90;;;;;;4964217;28;20103;-74
2022/11/01 11:37:37;;;;;;;22.50;21.00;;;17.30;99.90;;;;;;4961097;28;20481;-78
2022/11/01 11:40:23;;;;;;;21.25;19.75;;;17.10;99.90;;;;;;4970334;28;20065;-79
2022/11/01 11:42:52;;;;;;;22.83;21.08;;;17.00;99.90;;;;;;4968401;28;20060;-78
2022/11/01 11:45:29;;;;;;;22.73;21.10;;;17.10;99.90;;;;;;4980656;28;21531;-77
2022/11/01 11:48:14;;;;;;;23.75;21.90;;;17.10;99.90;;;;;;4982314;28;20052;-74
2022/11/01 11:50:42;;;;;;;24.05;22.45;;;17.10;99.90;;;;;;4963815;28;20054;-76
2022/11/01 11:53:23;;;;;;;23.85;22.05;;;16.90;99.90;;;;;;4967246;28;20050;-72
2022/11/01 11:55:58;;;;;;;24.05;22.15;;;16.90;99.90;;;;;;4978036;28;20376;-76
2022/11/01 11:58:34;;;;;;;25.23;23.30;;;16.90;99.90;;;;;;4990930;28;20052;-76
2022/11/01 12:01:14;;;;;;;24.60;22.92;;;16.90;99.90;;;;;;4980284;28;20050;-76
2022/11/01 12:03:47;;;;;;;24.15;22.60;;;16.90;99.90;;;;;;4976792;28;20042;-77
2022/11/01 12:06:26;;;;;;;24.58;22.65;;;16.80;99.90;;;;;;4982026;28;20133;-76
2022/11/01 12:08:55;;;;;;;24.48;22.63;;;16.90;99.90;;;;;;4988942;28;20060;-73
2022/11/01 12:11:23;;;;;;;24.92;22.98;;;17.00;99.90;;;;;;4965146;28;20046;-78
2022/11/01 12:14:02;;;;;;;25.67;23.60;;;16.80;99.90;;;;;;4981685;28;20148;-78
2022/11/01 12:16:39;;;;;;;25.27;23.58;;;16.80;99.90;;;;;;4980713;28;20131;-78
2022/11/01 12:19:28;;;;;;;24.15;22.52;;;17.00;99.90;;;;;;4968761;28;20046;-77
2022/11/01 12:21:59;;;;;;;24.75;22.75;;;17.00;99.90;;;;;;4980173;28;20132;-75
2022/11/01 12:24:41;;;;;;;26.48;24.27;;;17.10;99.90;;;;;;4964498;28;20321;-77
2022/11/01 12:27:14;;;;;;;25.33;23.50;;;17.10;99.90;;;;;;4984218;28;20080;-77
2022/11/01 12:29:51;;;;;;;25.67;23.80;;;17.30;99.90;;;;;;4981222;28;20054;-77
2022/11/01 12:32:26;;;;;;;27.88;25.15;;;17.20;99.90;;;;;;4986287;28;20266;-77
2022/11/01 12:34:57;;;;;;;29.10;26.27;;;17.20;99.90;;;;;;4982761;28;20060;-77
2022/11/01 12:37:41;;;;;;;27.80;25.67;;;17.20;99.90;;;;;;4986550;28;20046;-76
2022/11/01 12:40:32;;;;;;;26.60;24.77;;;17.00;99.90;;;;;;4966368;28;20050;-75
2022/11/01 12:43:13;;;;;;;26.92;25.13;;;16.80;99.90;;;;;;4984374;28;20343;-76
2022/11/01 12:45:55;;;;;;;29.75;27.55;;;16.80;99.90;;;;;;4979984;28;20046;-78
2022/11/01 12:48:48;;;;;;;31.08;28.70;;;17.00;99.90;;;;;;4968494;28;20073;-78
2022/11/01 12:51:31;;;;;;;27.58;25.23;;;16.90;99.90;;;;;;4970320;28;20049;-78
2022/11/01 12:53:58;;;;;;;29.35;26.95;;;17.00;99.90;;;;;;4982484;28;20041;-78
2022/11/01 12:56:26;;;;;;;29.65;27.27;;;17.10;99.90;;;;;;4982519;28;20566;-78